createdAt,value
2022-08-16T00:01:14.829Z,41.13
2022-08-16T00:03:41.558Z,44.37
2022-08-16T00:06:10.132Z,42.97
2022-08-16T00:08:37.664Z,42.73
2022-08-16T00:11:06.121Z,40.80
2022-08-16T00:13:33.301Z,40.90
2022-08-16T00:17:00.776Z,38.67
2022-08-16T00:18:55.866Z,41.10
2022-08-16T00:21:23.903Z,39.87
2022-08-16T00:23:50.642Z,41.43
2022-08-16T00:26:34.593Z,39.70
2022-08-16T00:29:04.792Z,39.70
2022-08-16T00:31:58.857Z,38.33
2022-08-16T00:34:20.911Z,38.37
2022-08-16T00:36:48.996Z,38.97
2022-08-16T00:39:22.676Z,38.73
2022-08-16T00:41:50.208Z,39.17
2022-08-16T00:44:19.916Z,39.27
2022-08-16T00:47:05.014Z,39.87
2022-08-16T00:49:39.774Z,38.70
2022-08-16T00:52:30.032Z,37.50
2022-08-16T00:54:58.311Z,36.97
2022-08-16T00:57:25.708Z,37.53
2022-08-16T00:59:58.867Z,38.07
2022-08-16T01:02:31.670Z,37.20
2022-08-16T01:05:11.191Z,39.67
2022-08-16T01:07:50.535Z,38.03
2022-08-16T01:10:19.527Z,38.27
2022-08-16T01:12:46.518Z,38.13
2022-08-16T01:15:15.648Z,39.43
2022-08-16T01:17:44.715Z,40.63
2022-08-16T01:20:23.974Z,39.83
2022-08-16T01:23:03.376Z,39.70
2022-08-16T01:25:36.694Z,39.97
2022-08-16T01:28:10.860Z,40.10
2022-08-16T01:30:51.900Z,37.77
2022-08-16T01:33:20.250Z,38.13
2022-08-16T01:35:53.607Z,38.97
2022-08-16T01:38:28.236Z,37.60
2022-08-16T01:41:02.015Z,38.40
2022-08-16T01:43:31.139Z,37.77
2022-08-16T01:46:00.064Z,37.77
2022-08-16T01:48:47.711Z,35.53
2022-08-16T01:51:18.659Z,37.30
2022-08-16T01:53:55.202Z,35.93
2022-08-16T01:56:25.472Z,37.00
2022-08-16T01:58:54.304Z,34.57
2022-08-16T02:01:21.536Z,35.47
2022-08-16T02:03:50.510Z,34.53
2022-08-16T02:06:33.877Z,34.67
2022-08-16T02:09:05.242Z,35.57
2022-08-16T02:11:43.001Z,34.90
2022-08-16T02:14:18.466Z,35.93
2022-08-16T02:16:48.528Z,34.77
2022-08-16T02:19:16.962Z,34.60
2022-08-16T02:22:08.904Z,35.27
2022-08-16T02:24:40.647Z,34.00
2022-08-16T02:27:09.429Z,34.67
2022-08-16T02:29:36.825Z,33.40
2022-08-16T02:32:50.649Z,33.10
2022-08-16T02:34:56.929Z,34.10
2022-08-16T02:37:23.705Z,34.60
2022-08-16T02:40:11.599Z,36.67
2022-08-16T02:42:39.102Z,37.20
2022-08-16T02:45:06.676Z,36.83
2022-08-16T02:48:00.455Z,37.73
2022-08-16T02:50:54.634Z,36.37
2022-08-16T02:53:11.503Z,37.20
2022-08-16T02:55:41.345Z,36.93
2022-08-16T02:58:09.137Z,39.53
2022-08-16T03:00:36.437Z,39.00
2022-08-16T03:03:04.816Z,39.47
2022-08-16T03:05:37.450Z,39.03
2022-08-16T03:08:05.446Z,39.10
2022-08-16T03:10:52.462Z,41.57
2022-08-16T03:13:20.954Z,40.57
2022-08-16T03:15:49.740Z,42.00
2022-08-16T03:18:34.142Z,41.87
2022-08-16T03:21:04.033Z,41.20
2022-08-16T03:23:35.885Z,41.40
2022-08-16T03:26:02.975Z,41.77
2022-08-16T03:28:30.769Z,44.10
2022-08-16T03:30:57.459Z,43.93
2022-08-16T03:33:24.483Z,43.63
2022-08-16T03:35:57.192Z,42.07
2022-08-16T03:38:33.973Z,40.13
2022-08-16T03:41:03.023Z,38.53
2022-08-16T03:43:51.706Z,41.43
2022-08-16T03:46:47.997Z,38.90
2022-08-16T03:49:11.327Z,40.47
2022-08-16T03:51:39.575Z,41.67
2022-08-16T03:54:12.349Z,41.20
2022-08-16T03:56:56.770Z,40.80
2022-08-16T03:59:25.998Z,40.47
2022-08-16T04:01:56.850Z,41.97
2022-08-16T04:04:32.586Z,42.43
2022-08-16T04:07:00.642Z,40.87
2022-08-16T04:09:31.126Z,43.60
2022-08-16T04:12:03.447Z,42.80
2022-08-16T04:14:38.615Z,44.67
2022-08-16T04:17:14.875Z,46.03
2022-08-16T04:19:45.535Z,45.67
2022-08-16T04:22:17.429Z,46.03
2022-08-16T04:24:54.429Z,48.00
2022-08-16T04:27:22.279Z,46.00
2022-08-16T04:29:52.561Z,48.93
2022-08-16T04:32:20.064Z,48.93
2022-08-16T04:34:46.845Z,48.17
2022-08-16T04:37:14.117Z,50.03
2022-08-16T04:39:47.371Z,51.07
2022-08-16T04:42:25.909Z,53.37
2022-08-16T04:44:55.693Z,53.30
2022-08-16T04:47:25.566Z,52.10
2022-08-16T04:50:00.880Z,50.70
2022-08-16T04:52:33.186Z,49.43
2022-08-16T04:55:05.800Z,47.93
2022-08-16T04:57:32.762Z,44.33
2022-08-16T05:00:31.215Z,38.57
2022-08-16T05:02:54.857Z,32.23
2022-08-16T05:05:24.006Z,29.07
2022-08-16T05:07:58.370Z,25.70
2022-08-16T05:10:27.455Z,22.30
2022-08-16T05:12:54.495Z,21.77
2022-08-16T05:15:24.499Z,20.57
2022-08-16T05:17:55.494Z,20.90
2022-08-16T05:20:38.643Z,19.73
2022-08-16T05:23:15.059Z,20.07
2022-08-16T05:25:48.435Z,18.30
2022-08-16T05:28:15.925Z,17.70
2022-08-16T05:30:43.685Z,17.47
2022-08-16T05:33:16.652Z,16.83
2022-08-16T05:35:44.953Z,17.27
2022-08-16T05:38:32.268Z,17.93
2022-08-16T05:41:04.557Z,17.00
2022-08-16T05:43:32.234Z,17.83
2022-08-16T05:46:29.028Z,17.90
2022-08-16T05:49:03.129Z,15.97
2022-08-16T05:51:38.690Z,14.83
2022-08-16T05:54:07.505Z,16.23
2022-08-16T05:56:37.271Z,17.00
2022-08-16T05:59:06.348Z,16.53
2022-08-16T06:01:38.016Z,17.03
2022-08-16T06:04:12.821Z,18.03
2022-08-16T06:06:43.489Z,19.30
2022-08-16T06:09:24.698Z,17.93
2022-08-16T06:11:52.379Z,17.57
2022-08-16T06:14:19.585Z,18.37
2022-08-16T06:16:50.853Z,18.13
2022-08-16T06:19:17.874Z,17.53
2022-08-16T06:21:44.953Z,20.57
2022-08-16T06:24:54.242Z,19.40
2022-08-16T06:26:59.974Z,18.90
2022-08-16T06:29:26.663Z,19.63
2022-08-16T06:31:54.203Z,20.03
2022-08-16T06:34:53.262Z,20.00
2022-08-16T06:37:10.353Z,18.87
2022-08-16T06:39:46.717Z,19.43
2022-08-16T06:42:18.513Z,19.20
2022-08-16T06:44:46.982Z,17.80
2022-08-16T06:47:17.114Z,19.17
2022-08-16T06:49:54.141Z,18.57
2022-08-16T06:52:58.437Z,19.33
2022-08-16T06:55:13.638Z,18.60
2022-08-16T06:57:41.954Z,18.70
2022-08-16T07:00:24.125Z,17.27
2022-08-16T07:02:54.345Z,18.10
2022-08-16T07:05:27.350Z,17.37
2022-08-16T07:08:11.350Z,15.83
2022-08-16T07:10:38.601Z,16.07
2022-08-16T07:13:11.992Z,14.93
2022-08-16T07:15:50.144Z,16.60
2022-08-16T07:18:24.489Z,16.03
2022-08-16T07:20:52.917Z,14.60
2022-08-16T07:23:21.647Z,15.00
2022-08-16T07:26:05.517Z,14.97
2022-08-16T07:28:35.283Z,14.60
2022-08-16T07:31:02.582Z,14.53
2022-08-16T07:33:53.583Z,14.40
2022-08-16T07:36:23.986Z,14.60
2022-08-16T07:38:51.604Z,14.20
2022-08-16T07:41:18.946Z,14.00
2022-08-16T07:43:47.557Z,13.70
2022-08-16T07:46:39.059Z,14.00
2022-08-16T07:49:05.594Z,14.47
2022-08-16T07:51:38.380Z,14.83
2022-08-16T07:54:10.222Z,12.87
2022-08-16T07:56:37.705Z,15.20
2022-08-16T07:59:04.727Z,14.90
2022-08-16T08:01:31.603Z,13.90
2022-08-16T08:04:00.290Z,13.50
2022-08-16T08:06:32.475Z,13.97
2022-08-16T08:09:00.044Z,14.03
2022-08-16T08:11:28.836Z,13.47
2022-08-16T08:13:57.204Z,12.43
2022-08-16T08:16:30.936Z,12.53
2022-08-16T08:19:00.977Z,13.38
2022-08-16T08:22:01.136Z,13.15
2022-08-16T08:24:18.708Z,12.45
2022-08-16T08:26:50.014Z,11.40
2022-08-16T08:29:17.592Z,11.57
2022-08-16T08:31:51.567Z,12.30
2022-08-16T08:34:18.736Z,11.82
2022-08-16T08:36:47.962Z,12.07
2022-08-16T08:39:15.357Z,8.82
2022-08-16T08:41:43.326Z,9.32
2022-08-16T08:44:28.407Z,10.50
2022-08-16T08:47:01.827Z,11.40
2022-08-16T08:49:46.226Z,10.52
2022-08-16T08:52:34.216Z,9.60
2022-08-16T08:55:05.038Z,10.20
2022-08-16T08:57:38.339Z,10.43
2022-08-16T09:00:13.022Z,9.00
2022-08-16T09:02:41.306Z,9.55
2022-08-16T09:05:15.636Z,9.65
2022-08-16T09:08:01.837Z,9.25
2022-08-16T09:10:32.179Z,9.40
2022-08-16T09:13:01.398Z,9.75
2022-08-16T09:15:32.884Z,9.82
2022-08-16T09:18:00.997Z,8.95
2022-08-16T09:20:29.933Z,10.02
2022-08-16T09:23:01.756Z,11.02
2022-08-16T09:25:33.821Z,9.18
2022-08-16T09:28:09.066Z,8.52
2022-08-16T09:30:43.469Z,8.00
2022-08-16T09:33:17.834Z,7.03
2022-08-16T09:35:47.278Z,7.65
2022-08-16T09:38:32.026Z,7.55
2022-08-16T09:41:00.323Z,7.25
2022-08-16T09:43:53.315Z,7.35
2022-08-16T09:46:44.561Z,7.80
2022-08-16T09:49:03.691Z,7.95
2022-08-16T09:51:37.335Z,6.93
2022-08-16T09:54:05.657Z,7.93
2022-08-16T09:56:34.462Z,8.32
2022-08-16T09:59:07.426Z,8.07
2022-08-16T10:01:35.988Z,9.20
2022-08-16T10:04:04.564Z,9.50
2022-08-16T10:06:34.870Z,7.97
2022-08-16T10:09:05.298Z,8.93
2022-08-16T10:11:52.585Z,9.05
2022-08-16T10:14:19.821Z,9.52
2022-08-16T10:16:48.835Z,9.75
2022-08-16T10:19:19.365Z,8.35
2022-08-16T10:21:46.385Z,8.52
2022-08-16T10:24:28.511Z,7.90
2022-08-16T10:27:16.309Z,8.10
2022-08-16T10:30:00.161Z,8.32
2022-08-16T10:32:32.391Z,8.23
2022-08-16T10:34:59.475Z,8.82
2022-08-16T10:37:32.641Z,7.88
2022-08-16T10:40:05.979Z,7.47
2022-08-16T10:42:33.570Z,7.38
2022-08-16T10:45:01.896Z,7.00
2022-08-16T10:47:33.203Z,7.82
2022-08-16T10:50:06.935Z,8.18
2022-08-16T10:52:46.961Z,7.10
2022-08-16T10:58:11.669Z,6.65
2022-08-16T11:00:40.292Z,6.53
2022-08-16T11:03:42.320Z,6.30
2022-08-16T11:05:59.457Z,6.63
2022-08-16T11:08:35.939Z,6.50
2022-08-16T11:11:12.940Z,6.95
2022-08-16T11:14:10.630Z,7.57
2022-08-16T11:19:22.614Z,6.60
2022-08-16T11:24:45.073Z,6.65
2022-08-16T11:27:19.830Z,7.40
2022-08-16T11:29:49.203Z,6.38
2022-08-16T11:32:20.191Z,6.28
2022-08-16T11:35:10.645Z,6.88
2022-08-16T11:40:33.229Z,7.15
2022-08-16T11:43:01.029Z,6.57
2022-08-16T11:45:28.485Z,7.57
2022-08-16T11:48:00.406Z,7.18
2022-08-16T11:50:27.256Z,6.30
2022-08-16T11:52:54.056Z,7.10
2022-08-16T11:55:23.490Z,6.53
2022-08-16T11:57:51.478Z,6.85
2022-08-16T12:00:33.949Z,6.75
2022-08-16T12:03:11.039Z,6.40
2022-08-16T12:05:39.738Z,6.38
2022-08-16T12:08:08.673Z,6.72
2022-08-16T12:10:38.254Z,6.75
2022-08-16T12:13:05.371Z,6.75
2022-08-16T12:15:32.146Z,6.00
2022-08-16T12:18:02.005Z,7.43
2022-08-16T12:20:35.043Z,5.97
2022-08-16T12:23:02.591Z,5.97
2022-08-16T12:25:31.500Z,5.43
2022-08-16T12:27:59.209Z,5.13
2022-08-16T12:30:36.244Z,5.63
2022-08-16T12:33:07.435Z,6.07
2022-08-16T12:35:36.794Z,5.65
2022-08-16T12:38:37.781Z,5.38
2022-08-16T12:40:57.111Z,6.65
2022-08-16T12:43:24.643Z,7.80
2022-08-16T12:45:54.401Z,6.45
2022-08-16T12:48:44.332Z,5.90
2022-08-16T12:51:23.804Z,6.20
2022-08-16T12:53:52.548Z,6.85
2022-08-16T12:56:22.176Z,5.18
2022-08-16T12:58:53.018Z,6.50
2022-08-16T13:01:26.115Z,6.32
2022-08-16T13:04:08.191Z,6.10
2022-08-16T13:06:40.385Z,6.57
2022-08-16T13:09:21.548Z,6.00
2022-08-16T13:12:00.980Z,5.80
2022-08-16T13:14:33.883Z,6.03
2022-08-16T13:17:02.012Z,6.25
2022-08-16T13:19:44.215Z,6.00
2022-08-16T13:22:18.630Z,5.83
2022-08-16T13:24:46.647Z,6.20
2022-08-16T13:27:13.835Z,5.73
2022-08-16T13:29:44.097Z,6.30
2022-08-16T13:32:40.135Z,6.10
2022-08-16T13:34:57.974Z,5.43
2022-08-16T13:37:25.411Z,5.53
2022-08-16T13:39:52.964Z,6.20
2022-08-16T13:42:19.807Z,5.77
2022-08-16T13:44:55.949Z,5.73
2022-08-16T13:47:23.790Z,5.30
2022-08-16T13:49:56.684Z,5.57
2022-08-16T13:52:25.010Z,5.43
2022-08-16T13:54:52.722Z,5.47
2022-08-16T13:57:20.035Z,5.30
2022-08-16T13:59:50.043Z,5.67
2022-08-16T14:02:17.354Z,5.03
2022-08-16T14:04:45.725Z,5.23
2022-08-16T14:07:20.023Z,6.33
2022-08-16T14:09:55.213Z,5.17
2022-08-16T14:12:25.278Z,5.37
2022-08-16T14:14:57.288Z,5.50
2022-08-16T14:17:26.129Z,5.83
2022-08-16T14:19:53.190Z,5.53
2022-08-16T14:22:31.261Z,5.53
2022-08-16T14:24:59.743Z,5.73
2022-08-16T14:27:29.108Z,5.23
2022-08-16T14:29:58.391Z,4.93
2022-08-16T14:32:33.082Z,6.03
2022-08-16T14:35:02.213Z,5.73
2022-08-16T14:37:29.688Z,5.60
2022-08-16T14:40:00.082Z,5.40
2022-08-16T14:42:28.260Z,4.87
2022-08-16T14:44:55.013Z,5.20
2022-08-16T14:47:22.675Z,5.17
2022-08-16T14:49:49.692Z,5.10
2022-08-16T14:52:44.453Z,5.30
2022-08-16T14:55:11.707Z,4.70
2022-08-16T14:57:41.199Z,4.50
2022-08-16T15:00:11.498Z,4.67
2022-08-16T15:02:40.377Z,4.87
2022-08-16T15:05:09.513Z,4.60
2022-08-16T15:07:36.926Z,4.27
2022-08-16T15:10:08.606Z,5.00
2022-08-16T15:12:50.217Z,4.33
2022-08-16T15:15:19.795Z,4.77
2022-08-16T15:17:56.758Z,5.00
2022-08-16T15:20:26.182Z,4.40
2022-08-16T15:22:57.107Z,5.07
2022-08-16T15:25:29.209Z,4.70
2022-08-16T15:28:01.596Z,4.03
2022-08-16T15:30:58.510Z,4.20
2022-08-16T15:33:18.433Z,4.53
2022-08-16T15:35:49.525Z,4.77
2022-08-16T15:38:57.153Z,4.60
2022-08-16T15:41:04.578Z,4.53
2022-08-16T15:43:39.413Z,5.50
2022-08-16T15:46:35.104Z,5.13
2022-08-16T15:49:16.039Z,4.60
2022-08-16T15:51:46.436Z,4.17
2022-08-16T15:54:21.435Z,4.70
2022-08-16T15:56:56.835Z,4.30
2022-08-16T15:59:27.174Z,4.27
2022-08-16T16:01:55.957Z,5.80
2022-08-16T16:04:25.558Z,5.03
2022-08-16T16:06:55.097Z,4.50
2022-08-16T16:09:26.103Z,4.23
2022-08-16T16:12:02.050Z,4.90
2022-08-16T16:14:30.490Z,7.13
2022-08-16T16:17:00.159Z,4.33
2022-08-16T16:19:29.065Z,4.67
2022-08-16T16:21:58.343Z,4.17
2022-08-16T16:24:31.389Z,4.73
2022-08-16T16:26:58.624Z,5.10
2022-08-16T16:29:25.527Z,4.47
2022-08-16T16:31:59.462Z,4.70
2022-08-16T16:34:32.295Z,4.70
2022-08-16T16:37:02.479Z,4.90
2022-08-16T16:39:32.772Z,4.63
2022-08-16T16:41:59.713Z,4.60
2022-08-16T16:44:33.487Z,6.20
2022-08-16T16:47:03.700Z,5.10
2022-08-16T16:49:32.309Z,5.20
2022-08-16T16:52:06.999Z,5.17
2022-08-16T16:54:34.884Z,5.40
2022-08-16T16:57:01.778Z,4.23
2022-08-16T16:59:28.730Z,4.67
2022-08-16T17:02:38.180Z,4.80
2022-08-16T17:04:45.278Z,4.60
2022-08-16T17:07:12.444Z,4.87
2022-08-16T17:09:40.601Z,4.63
2022-08-16T17:12:08.993Z,4.93
2022-08-16T17:14:35.893Z,5.73
2022-08-16T17:17:08.519Z,5.83
2022-08-16T17:19:41.039Z,4.87
2022-08-16T17:22:15.195Z,4.63
2022-08-16T17:24:45.062Z,11.30
2022-08-16T17:27:17.957Z,6.03
2022-08-16T17:29:46.653Z,5.33
2022-08-16T17:32:33.550Z,6.17
2022-08-16T17:35:10.228Z,5.80
2022-08-16T17:37:50.838Z,5.07
2022-08-16T17:40:40.809Z,5.17
2022-08-16T17:43:08.808Z,13.13
2022-08-16T17:45:35.964Z,9.87
2022-08-16T17:48:02.968Z,13.07
2022-08-16T17:50:29.699Z,11.53
2022-08-16T17:53:00.128Z,8.47
2022-08-16T17:55:30.233Z,5.67
2022-08-16T17:58:00.295Z,6.03
2022-08-16T18:00:29.020Z,6.27
2022-08-16T18:02:57.741Z,5.63
2022-08-16T18:05:26.523Z,6.33
2022-08-16T18:07:53.672Z,6.20
2022-08-16T18:10:33.107Z,6.67
2022-08-16T18:13:03.731Z,6.37
2022-08-16T18:15:32.041Z,6.47
2022-08-16T18:18:00.025Z,5.67
2022-08-16T18:20:45.781Z,6.80
2022-08-16T18:23:15.315Z,6.90
2022-08-16T18:25:48.087Z,5.63
2022-08-16T18:28:15.529Z,5.73
2022-08-16T18:30:50.916Z,6.97
2022-08-16T18:33:19.296Z,6.60
2022-08-16T18:35:46.454Z,5.70
2022-08-16T18:38:13.268Z,5.90
2022-08-16T18:40:40.756Z,6.00
2022-08-16T18:43:10.557Z,6.57
2022-08-16T18:45:42.603Z,6.20
2022-08-16T18:48:11.137Z,10.07
2022-08-16T18:51:03.446Z,7.50
2022-08-16T18:53:28.078Z,7.23
2022-08-16T18:55:57.986Z,8.43
2022-08-16T18:58:26.345Z,8.57
2022-08-16T19:00:56.639Z,7.77
2022-08-16T19:03:27.215Z,7.90
2022-08-16T19:05:56.835Z,8.07
2022-08-16T19:08:26.270Z,7.90
2022-08-16T19:10:53.545Z,8.30
2022-08-16T19:13:23.501Z,8.70
2022-08-16T19:15:52.925Z,8.30
2022-08-16T19:18:21.214Z,9.10
2022-08-16T19:20:48.530Z,9.70
2022-08-16T19:23:18.178Z,10.27
2022-08-16T19:25:48.568Z,9.13
2022-08-16T19:28:49.541Z,8.43
2022-08-16T19:31:07.996Z,8.03
2022-08-16T19:33:34.857Z,7.90
2022-08-16T19:36:06.168Z,8.23
2022-08-16T19:38:33.253Z,10.10
2022-08-16T19:41:00.836Z,8.33
2022-08-16T19:43:27.779Z,9.80
2022-08-16T19:45:54.671Z,8.53
2022-08-16T19:48:22.327Z,9.10
2022-08-16T19:50:49.127Z,9.10
2022-08-16T19:53:18.833Z,10.93
2022-08-16T19:55:47.346Z,9.37
2022-08-16T19:58:16.165Z,7.97
2022-08-16T20:00:44.312Z,7.57
2022-08-16T20:03:14.970Z,8.10
2022-08-16T20:05:45.937Z,8.30
2022-08-16T20:08:13.157Z,10.53
2022-08-16T20:10:41.435Z,11.73
2022-08-16T20:13:13.474Z,10.00
2022-08-16T20:15:41.442Z,8.73
2022-08-16T20:18:17.232Z,9.17
2022-08-16T20:20:53.044Z,9.70
2022-08-16T20:23:24.325Z,9.53
2022-08-16T20:25:54.752Z,10.37
2022-08-16T20:28:51.792Z,9.60
2022-08-16T20:31:09.010Z,10.40
2022-08-16T20:33:36.078Z,9.23
2022-08-16T20:36:04.106Z,9.73
2022-08-16T20:38:31.016Z,10.07
2022-08-16T20:40:58.033Z,10.07
2022-08-16T20:43:25.060Z,9.23
2022-08-16T20:45:51.814Z,10.00
2022-08-16T20:48:19.010Z,9.37
2022-08-16T20:50:46.138Z,9.33
2022-08-16T20:53:13.554Z,10.50
2022-08-16T20:55:41.090Z,10.33
2022-08-16T20:58:07.902Z,11.43
2022-08-16T21:00:34.816Z,10.97
2022-08-16T21:03:05.633Z,11.27
2022-08-16T21:05:33.525Z,11.67
2022-08-16T21:08:00.634Z,11.60
2022-08-16T21:10:28.279Z,12.23
2022-08-16T21:12:58.667Z,13.83
2022-08-16T21:15:27.218Z,13.03
2022-08-16T21:17:54.143Z,12.87
2022-08-16T21:20:22.237Z,12.00
2022-08-16T21:22:52.937Z,11.37
2022-08-16T21:25:23.149Z,11.43
2022-08-16T21:28:40.562Z,12.33
2022-08-16T21:30:37.899Z,12.63
2022-08-16T21:33:06.596Z,12.80
2022-08-16T21:35:34.648Z,11.50
2022-08-16T21:38:29.419Z,12.27
2022-08-16T21:40:48.555Z,12.37
2022-08-16T21:43:22.255Z,12.27
2022-08-16T21:45:54.865Z,12.17
2022-08-16T21:48:33.600Z,12.83
2022-08-16T21:51:01.700Z,13.00
2022-08-16T21:53:28.961Z,12.90
2022-08-16T21:55:57.449Z,13.13
2022-08-16T21:58:25.426Z,13.20
2022-08-16T22:00:52.896Z,12.60
2022-08-16T22:03:20.445Z,12.13
2022-08-16T22:06:10.083Z,12.20
2022-08-16T22:08:35.521Z,12.37
2022-08-16T22:11:09.423Z,12.93
2022-08-16T22:13:37.458Z,14.27
2022-08-16T22:16:07.404Z,13.80
2022-08-16T22:18:34.425Z,13.10
2022-08-16T22:21:01.293Z,13.00
2022-08-16T22:23:29.008Z,13.83
2022-08-16T22:25:56.022Z,13.03
2022-08-16T22:28:26.939Z,12.40
2022-08-16T22:30:54.341Z,14.33
2022-08-16T22:33:23.190Z,13.33
2022-08-16T22:35:53.070Z,14.03
2022-08-16T22:38:54.610Z,13.57
2022-08-16T22:41:07.698Z,13.13
2022-08-16T22:43:34.451Z,12.93
2022-08-16T22:46:02.202Z,13.20
2022-08-16T22:48:29.270Z,12.70
2022-08-16T22:50:56.325Z,12.90
2022-08-16T22:53:28.797Z,14.30
2022-08-16T22:55:57.171Z,13.23
2022-08-16T22:58:33.960Z,13.10
2022-08-16T23:01:04.998Z,13.77
2022-08-16T23:03:31.732Z,13.37
2022-08-16T23:05:59.735Z,13.33
2022-08-16T23:08:38.168Z,13.70
2022-08-16T23:11:08.296Z,13.70
2022-08-16T23:13:35.217Z,12.50
2022-08-16T23:16:10.804Z,12.70
2022-08-16T23:18:39.310Z,12.83
2022-08-16T23:21:09.519Z,12.70
2022-08-16T23:23:37.550Z,13.33
2022-08-16T23:26:45.140Z,12.33
2022-08-16T23:28:53.647Z,13.17
2022-08-16T23:31:21.127Z,12.67
2022-08-16T23:33:48.098Z,14.33
2022-08-16T23:36:15.022Z,13.07
2022-08-16T23:38:42.293Z,13.13
2022-08-16T23:41:11.779Z,12.40
2022-08-16T23:43:42.335Z,13.67
2022-08-16T23:46:13.291Z,12.47
2022-08-16T23:49:58.644Z,13.07
2022-08-16T23:51:29.128Z,14.80
2022-08-16T23:53:56.483Z,13.27
2022-08-16T23:56:24.934Z,13.63
2022-08-16T23:58:54.333Z,12.50
